Time;durP1;ratioP1;P1;durP2;ratioP2;P2;SDS_P1;SDS_P2;PMS_P1;PMS_P2;Temp;Humidity;BMP_temperature;BMP_pressure;BME280_temperature;BME280_humidity;BME280_pressure;Samples;Min_cycle;Max_cycle;Signal;HPM_P1;HPM_P2
2022/03/29 00:01:05;;;;;;;26.52;15.20;;;;;;;8.93;74.93;97219.91;4985684;28;20061;-57
2022/03/29 00:03:32;;;;;;;32.35;16.73;;;;;;;9.01;75.26;97218.91;4983844;28;20124;-74
2022/03/29 00:05:59;;;;;;;33.08;15.90;;;;;;;9.04;75.24;97212.69;4985328;28;20055;-71
2022/03/29 00:08:25;;;;;;;29.42;16.92;;;;;;;8.99;75.13;97193.59;4984029;28;20066;-74
2022/03/29 00:10:52;;;;;;;33.42;18.15;;;;;;;9.24;74.22;97219.91;4983833;28;20055;-59
2022/03/29 00:13:19;;;;;;;45.30;20.35;;;;;;;9.28;73.61;97215.25;4984154;28;20544;-56
2022/03/29 00:19:21;;;;;;;31.27;16.70;;;;;;;9.21;74.16;97204.03;4984895;28;20077;-58
2022/03/29 00:21:48;;;;;;;28.15;14.55;;;;;;;9.12;74.30;97200.63;4985065;28;20066;-72
2022/03/29 00:24:14;;;;;;;29.33;14.75;;;;;;;9.07;74.46;97187.09;4985276;28;20058;-74
2022/03/29 00:26:41;;;;;;;33.50;13.43;;;;;;;9.06;74.43;97185.47;4985150;28;20483;-74
2022/03/29 00:29:08;;;;;;;29.30;13.35;;;;;;;9.17;74.80;97203.13;4984973;28;20524;-59
2022/03/29 00:31:35;;;;;;;24.73;13.25;;;;;;;9.03;75.93;97200.00;4985289;28;20056;-74
2022/03/29 00:34:03;;;;;;;29.50;13.27;;;;;;;9.19;75.64;97189.75;4983505;28;20065;-58
2022/03/29 00:36:31;;;;;;;29.15;12.90;;;;;;;9.00;74.38;97137.19;4985033;28;20061;-58
2022/03/29 00:38:57;;;;;;;23.27;13.02;;;;;;;9.25;74.62;97176.47;4984250;28;20065;-69
2022/03/29 00:41:24;;;;;;;29.60;14.73;;;;;;;9.14;75.12;97165.16;4985190;28;20090;-58
2022/03/29 00:43:51;;;;;;;26.58;13.50;;;;;;;9.17;74.59;97181.00;4983591;28;20440;-58
2022/03/29 00:46:18;;;;;;;28.33;14.07;;;;;;;9.19;74.67;97173.19;4984489;28;20058;-73
2022/03/29 00:48:46;;;;;;;33.47;15.98;;;;;;;9.15;74.52;97173.09;4965417;28;20051;-73
2022/03/29 00:51:13;;;;;;;29.58;14.82;;;;;;;8.89;75.98;97174.78;4965183;28;20053;-57
2022/03/29 00:53:39;;;;;;;27.45;14.77;;;;;;;8.28;78.54;97159.75;4965478;28;20548;-58
2022/03/29 00:56:07;;;;;;;32.45;17.20;;;;;;;8.41;78.60;97151.03;4965110;28;20058;-70
2022/03/29 00:58:35;;;;;;;29.50;15.73;;;;;;;8.55;78.40;97175.47;4963821;28;20046;-72
2022/03/29 01:01:02;;;;;;;25.75;15.88;;;;;;;8.17;78.38;97098.72;4965451;28;20063;-57
2022/03/29 01:03:30;;;;;;;24.92;14.63;;;;;;;8.59;78.78;97160.59;4965542;28;20547;-60
2022/03/29 01:05:57;;;;;;;27.92;15.25;;;;;;;8.66;78.50;97171.03;4965017;28;20062;-58
2022/03/29 01:08:25;;;;;;;28.92;14.88;;;;;;;8.68;78.56;97160.41;4963708;28;20055;-59
2022/03/29 01:10:52;;;;;;;32.13;14.55;;;;;;;8.83;77.32;97154.13;4965026;28;20059;-57
2022/03/29 01:13:19;;;;;;;27.98;13.48;;;;;;;8.75;77.50;97152.34;4965081;28;20061;-60
2022/03/29 01:15:46;;;;;;;22.00;13.63;;;;;;;8.63;78.17;97139.41;4965029;28;20047;-71
2022/03/29 01:18:17;;;;;;;27.38;13.18;;;;;;;8.63;78.21;97141.38;4965362;28;20520;-58
2022/03/29 01:20:48;;;;;;;25.20;14.35;;;;;;;8.76;78.00;97142.88;4965138;28;20051;-72
2022/03/29 01:23:15;;;;;;;23.63;13.73;;;;;;;8.70;77.55;97113.94;4965239;28;20054;-60
2022/03/29 01:25:43;;;;;;;24.27;13.95;;;;;;;8.71;78.13;97121.06;4964010;28;20089;-72
2022/03/29 01:28:11;;;;;;;21.42;12.80;;;;;;;8.88;77.08;97135.31;4963598;28;20063;-72
2022/03/29 01:30:39;;;;;;;25.73;14.32;;;;;;;8.86;77.44;97139.59;4968384;28;20058;-58
2022/03/29 01:33:07;;;;;;;29.67;15.32;;;;;;;8.12;77.94;97023.69;4969872;28;20078;-58
2022/03/29 01:35:35;;;;;;;29.33;15.23;;;;;;;8.96;77.32;97130.78;4970737;28;20069;-71
2022/03/29 01:38:02;;;;;;;27.17;14.43;;;;;;;8.61;77.34;97074.66;4969650;28;20062;-73
2022/03/29 01:40:28;;;;;;;32.80;13.95;;;;;;;8.93;77.37;97114.91;4969854;28;20054;-58
2022/03/29 01:42:58;;;;;;;23.77;12.75;;;;;;;9.01;77.04;97111.13;4969690;28;20063;-59
2022/03/29 01:45:30;;;;;;;26.02;13.77;;;;;;;9.03;77.38;97108.84;4969770;28;20055;-72
2022/03/29 01:47:57;;;;;;;27.00;13.95;;;;;;;8.28;76.90;96977.63;4983994;28;20077;-69
2022/03/29 01:50:24;;;;;;;29.05;14.85;;;;;;;8.66;76.71;97135.16;4990224;28;20050;-60
2022/03/29 01:52:51;;;;;;;24.30;12.95;;;;;;;8.57;76.77;97035.09;4989090;28;20053;-67
2022/03/29 01:55:20;;;;;;;23.95;11.65;;;;;;;8.00;76.72;96927.25;4990658;28;20069;-70
2022/03/29 01:57:47;;;;;;;25.75;13.50;;;;;;;9.04;76.40;97093.88;4990994;28;20496;-72
2022/03/29 02:00:30;;;;;;;25.25;13.93;;;;;;;8.25;76.88;96967.31;4988839;28;20146;-70
2022/03/29 02:02:58;;;;;;;27.15;13.90;;;;;;;8.88;77.38;97085.59;4990683;28;20074;-72
2022/03/29 02:05:25;;;;;;;32.47;15.70;;;;;;;8.61;77.58;97053.38;4990239;28;20058;-59
2022/03/29 02:07:52;;;;;;;30.60;15.75;;;;;;;8.78;77.80;97085.34;4991390;28;20424;-73
2022/03/29 02:10:21;;;;;;;27.45;16.92;;;;;;;8.72;77.88;97084.00;4989478;28;20432;-73
2022/03/29 02:12:50;;;;;;;29.08;16.08;;;;;;;8.23;81.16;97080.78;4991014;28;20057;-57
2022/03/29 02:15:18;;;;;;;27.15;16.30;;;;;;;8.08;81.62;97031.09;4990037;28;20061;-57
2022/03/29 02:17:48;;;;;;;34.15;15.77;;;;;;;8.39;81.38;97072.53;4990647;28;20054;-59
2022/03/29 02:20:16;;;;;;;30.55;15.35;;;;;;;8.29;81.15;97050.97;4990170;28;20133;-72
2022/03/29 02:22:43;;;;;;;32.00;15.35;;;;;;;8.64;80.09;97065.66;4990751;28;20054;-58
2022/03/29 02:25:11;;;;;;;31.83;16.60;;;;;;;8.66;79.88;97055.84;4990480;28;20054;-59
2022/03/29 02:27:42;;;;;;;28.63;15.35;;;;;;;8.62;79.37;97038.41;4990770;28;20058;-58
2022/03/29 02:30:12;;;;;;;30.02;15.20;;;;;;;8.70;79.76;97055.94;4989121;28;20050;-58
2022/03/29 02:32:39;;;;;;;32.63;15.07;;;;;;;8.72;79.72;97054.44;4990663;28;20062;-59
2022/03/29 02:35:07;;;;;;;26.25;15.10;;;;;;;8.73;79.61;97058.00;4988662;28;20093;-57
2022/03/29 02:37:33;;;;;;;24.63;14.48;;;;;;;8.75;79.02;97052.91;4990233;28;20497;-73
2022/03/29 02:40:01;;;;;;;31.42;15.60;;;;;;;8.21;79.19;97016.84;4990077;28;20058;-57
2022/03/29 02:42:27;;;;;;;27.35;15.02;;;;;;;8.92;79.06;97066.34;4986988;28;20058;-58
2022/03/29 02:44:54;;;;;;;28.70;16.40;;;;;;;9.07;77.67;97065.53;4986785;28;20057;-72
2022/03/29 02:47:21;;;;;;;21.05;13.32;;;;;;;9.07;77.36;97060.00;4979806;28;20154;-72
2022/03/29 02:49:48;;;;;;;28.08;14.95;;;;;;;9.07;76.66;97058.00;4967711;28;20540;-72
2022/03/29 02:52:14;;;;;;;30.45;13.70;;;;;;;8.85;78.12;97046.84;4966484;28;20141;-70
2022/03/29 02:54:41;;;;;;;24.20;13.07;;;;;;;8.74;78.50;97029.22;4967660;28;20421;-57
2022/03/29 02:57:10;;;;;;;27.50;14.80;;;;;;;8.44;78.85;96970.13;4966189;28;20370;-58
2022/03/29 02:59:37;;;;;;;32.15;15.50;;;;;;;8.91;78.92;97050.94;4965831;28;20050;-73
2022/03/29 03:02:04;;;;;;;28.15;15.23;;;;;;;8.96;78.29;97050.66;4965643;28;20055;-58
2022/03/29 03:04:31;;;;;;;25.63;14.85;;;;;;;8.16;78.85;96937.09;4965733;28;20086;-58
2022/03/29 03:06:58;;;;;;;31.95;15.02;;;;;;;8.46;79.40;96995.41;4967514;28;20425;-73
2022/03/29 03:09:25;;;;;;;29.45;15.23;;;;;;;8.75;79.31;97036.34;4967682;28;20505;-73
2022/03/29 03:11:51;;;;;;;33.33;16.83;;;;;;;8.38;79.00;96961.31;4967806;28;20070;-71
2022/03/29 03:14:18;;;;;;;33.78;19.15;;;;;;;8.94;77.72;97034.44;4967128;28;20066;-57
2022/03/29 03:16:48;;;;;;;38.83;19.83;;;;;;;8.73;78.17;97066.28;4967222;28;20054;-57
2022/03/29 03:19:36;;;;;;;41.40;20.77;;;;;;;8.80;78.65;97027.78;4966888;28;20423;-57
2022/03/29 03:22:03;;;;;;;47.72;25.35;;;;;;;8.78;78.41;97035.63;4967171;28;20064;-71
2022/03/29 03:24:30;;;;;;;59.40;27.90;;;;;;;6.47;78.08;96651.00;4966635;28;20517;-73
2022/03/29 03:26:56;;;;;;;56.15;28.08;;;;;;;8.80;78.67;97028.56;4965492;28;20085;-72
2022/03/29 03:29:23;;;;;;;55.42;31.33;;;;;;;8.20;78.31;96943.53;4966977;28;20085;-57
2022/03/29 03:31:50;;;;;;;56.55;29.92;;;;;;;8.52;78.70;97000.28;4967040;28;20057;-73
2022/03/29 03:34:17;;;;;;;52.65;24.17;;;;;;;8.68;78.85;97030.66;4966521;28;20159;-59
2022/03/29 03:36:43;;;;;;;38.22;19.85;;;;;;;8.68;78.92;97027.88;4967175;28;20430;-58
2022/03/29 03:39:10;;;;;;;35.53;18.98;;;;;;;8.63;78.86;97022.66;4966801;28;20335;-71
2022/03/29 03:41:39;;;;;;;32.78;17.10;;;;;;;8.44;79.77;97019.81;4964911;28;20055;-58
2022/03/29 03:44:06;;;;;;;37.72;16.98;;;;;;;8.42;80.19;97022.13;4964859;28;20064;-57
2022/03/29 03:46:33;;;;;;;32.97;16.35;;;;;;;8.46;80.39;97017.47;4965842;28;20054;-58
2022/03/29 03:49:00;;;;;;;30.10;16.90;;;;;;;8.18;81.37;97006.53;4985844;28;20434;-70
2022/03/29 03:51:27;;;;;;;33.03;16.75;;;;;;;7.83;81.00;96927.59;4985852;28;20395;-74
2022/03/29 03:53:54;;;;;;;32.58;16.80;;;;;;;8.27;80.99;97017.41;4985844;28;20051;-71
2022/03/29 03:56:21;;;;;;;35.55;19.80;;;;;;;8.15;80.60;96998.16;4984097;28;20066;-72
2022/03/29 03:58:47;;;;;;;37.28;20.08;;;;;;;8.25;81.17;97019.72;4985466;28;20060;-58
2022/03/29 04:01:14;;;;;;;41.35;22.52;;;;;;;8.18;80.22;97001.00;4985415;28;20050;-68
2022/03/29 04:03:41;;;;;;;42.15;22.13;;;;;;;7.97;81.37;97010.66;4985697;28;20054;-73
2022/03/29 04:06:08;;;;;;;36.85;20.98;;;;;;;8.10;82.05;97026.81;4984424;28;20471;-72
2022/03/29 04:08:34;;;;;;;43.95;20.70;;;;;;;8.09;81.70;97024.41;4985599;28;20054;-70
2022/03/29 04:11:02;;;;;;;33.33;18.05;;;;;;;7.94;82.08;97028.75;4985052;28;20050;-72
2022/03/29 04:13:29;;;;;;;33.78;16.85;;;;;;;7.83;83.30;97021.34;4985141;28;20054;-61
2022/03/29 04:15:55;;;;;;;31.73;16.15;;;;;;;7.74;83.87;97025.03;4985884;28;20061;-58
2022/03/29 04:18:27;;;;;;;25.67;15.77;;;;;;;7.70;83.64;97023.34;4985615;28;20066;-70
2022/03/29 04:20:54;;;;;;;31.77;15.70;;;;;;;7.53;85.56;97024.47;4985704;28;20056;-73
2022/03/29 04:23:20;;;;;;;26.25;16.60;;;;;;;7.41;87.16;97026.47;4983663;28;20070;-72
2022/03/29 04:25:47;;;;;;;33.03;19.05;;;;;;;7.28;88.59;97028.47;4984028;28;20054;-73
2022/03/29 04:28:14;;;;;;;38.10;19.35;;;;;;;7.39;88.00;97029.59;4985262;28;20584;-71
2022/03/29 04:30:41;;;;;;;36.80;19.88;;;;;;;7.46;87.17;97029.78;4984682;28;20060;-62
2022/03/29 04:33:07;;;;;;;44.38;19.00;;;;;;;7.51;86.93;97032.28;4983780;28;20047;-72
2022/03/29 04:35:34;;;;;;;39.53;19.77;;;;;;;7.14;86.35;96985.94;4982958;28;20528;-58
2022/03/29 04:38:01;;;;;;;40.90;21.48;;;;;;;7.47;86.33;97036.91;4985094;28;20050;-61
2022/03/29 04:40:28;;;;;;;47.22;23.42;;;;;;;7.57;86.16;97039.16;4984787;28;20612;-71
2022/03/29 04:42:54;;;;;;;63.33;30.67;;;;;;;7.59;84.87;97039.59;4983085;28;20382;-59
2022/03/29 04:45:21;;;;;;;60.45;27.75;;;;;;;5.15;83.49;96621.28;4984827;28;20054;-72
2022/03/29 04:47:48;;;;;;;54.15;23.83;;;;;;;7.70;83.49;97006.81;4975222;28;20058;-72
2022/03/29 04:50:16;;;;;;;55.17;24.42;;;;;;;6.57;84.24;96832.09;4963888;28;20062;-69
2022/03/29 04:52:44;;;;;;;44.67;22.15;;;;;;;7.35;84.17;96953.50;4965605;28;20054;-60
2022/03/29 04:55:12;;;;;;;44.47;21.95;;;;;;;7.97;83.69;97035.50;4965349;28;20051;-58
2022/03/29 04:57:41;;;;;;;49.20;23.95;;;;;;;7.86;83.43;97009.59;4963832;28;20055;-58
2022/03/29 05:00:13;;;;;;;60.88;29.80;;;;;;;8.20;82.58;97036.50;4965131;28;20569;-57
2022/03/29 05:02:41;;;;;;;45.97;23.77;;;;;;;8.46;81.90;97034.03;4963677;28;20050;-72
2022/03/29 05:05:09;;;;;;;43.90;22.52;;;;;;;8.46;81.26;97014.72;4964888;28;20060;-72
2022/03/29 05:07:37;;;;;;;53.50;23.85;;;;;;;8.81;79.45;97029.38;4963867;28;20141;-72
2022/03/29 05:10:05;;;;;;;41.10;23.88;;;;;;;8.94;78.34;97028.13;4963652;28;20059;-61
2022/03/29 05:12:46;;;;;;;45.17;21.30;;;;;;;9.03;77.37;97003.84;4965749;28;20081;-72
2022/03/29 05:15:16;;;;;;;35.50;18.15;;;;;;;9.25;77.40;97021.72;4964937;28;20142;-72
2022/03/29 05:17:43;;;;;;;32.88;17.88;;;;;;;8.73;77.52;96950.28;4963413;28;20055;-70
2022/03/29 05:20:12;;;;;;;33.60;18.23;;;;;;;9.25;78.01;97028.00;4964673;28;20150;-70
2022/03/29 05:22:48;;;;;;;36.53;18.98;;;;;;;9.40;77.16;97018.88;4964961;28;20081;-58
2022/03/29 05:25:17;;;;;;;39.40;19.63;;;;;;;9.25;76.71;96983.78;4963227;28;20058;-60
2022/03/29 05:27:45;;;;;;;26.80;16.35;;;;;;;9.48;77.03;97031.69;4965155;28;20073;-69
2022/03/29 05:30:13;;;;;;;27.27;17.35;;;;;;;9.71;76.70;97013.19;4963194;28;20170;-70
2022/03/29 05:32:40;;;;;;;33.95;19.20;;;;;;;9.19;76.08;96918.94;4964764;28;20146;-59
2022/03/29 05:35:09;;;;;;;30.13;17.40;;;;;;;9.38;77.04;96982.50;4964442;28;20195;-60
2022/03/29 05:37:37;;;;;;;32.17;17.63;;;;;;;7.05;76.89;96652.09;4963799;28;20051;-59
2022/03/29 05:40:09;;;;;;;39.78;18.45;;;;;;;9.33;79.42;97023.44;4965561;28;20059;-67
2022/03/29 05:42:39;;;;;;;32.35;16.52;;;;;;;9.82;77.32;97014.19;4965046;28;20066;-57
2022/03/29 05:45:07;;;;;;;35.50;17.05;;;;;;;9.41;77.03;96898.84;4964589;28;20485;-67
2022/03/29 05:50:20;;;;;;;32.22;19.73;;;;;;;10.09;76.86;97013.16;4983732;28;20809;-67
2022/03/29 05:52:47;;;;;;;36.03;19.02;;;;;;;10.06;75.89;96958.53;4984208;28;20054;-70
2022/03/29 05:55:14;;;;;;;39.10;18.83;;;;;;;10.34;73.84;96967.31;4983552;28;20521;-70
2022/03/29 05:57:41;;;;;;;40.85;18.90;;;;;;;10.86;72.12;97007.31;4982610;28;20061;-59
2022/03/29 06:00:10;;;;;;;32.55;18.42;;;;;;;11.08;72.09;97009.25;4982604;28;20054;-69
2022/03/29 06:02:37;;;;;;;27.30;17.73;;;;;;;11.28;69.72;97002.38;4984413;28;20141;-59
2022/03/29 06:05:07;;;;;;;27.55;16.20;;;;;;;11.08;69.33;97020.31;4972205;28;20051;-60
2022/03/29 06:07:34;;;;;;;26.42;15.70;;;;;;;11.40;68.29;96971.63;4971805;28;20063;-57
2022/03/29 06:10:00;;;;;;;28.70;16.27;;;;;;;11.90;67.34;97001.63;4962956;28;20252;-58
2022/03/29 06:12:27;;;;;;;37.53;17.67;;;;;;;11.89;66.44;96969.47;4983656;28;20050;-59
2022/03/29 06:14:54;;;;;;;34.90;16.17;;;;;;;12.17;66.69;96994.75;4981798;28;20050;-65
2022/03/29 06:17:20;;;;;;;33.47;15.93;;;;;;;12.41;66.26;97005.28;4985103;28;20149;-60
2022/03/29 06:19:48;;;;;;;24.42;15.10;;;;;;;12.31;67.09;97000.44;4985462;28;20053;-66
2022/03/29 06:22:14;;;;;;;25.90;15.75;;;;;;;11.74;68.45;96951.88;4986313;28;20493;-62
2022/03/29 06:24:41;;;;;;;28.10;14.48;;;;;;;10.29;73.02;96854.13;4985960;28;20054;-65
2022/03/29 06:27:08;;;;;;;24.48;14.02;;;;;;;9.67;74.93;96826.22;4987173;28;20062;-64
2022/03/29 06:29:34;;;;;;;24.98;15.23;;;;;;;10.67;75.21;97000.69;4985700;28;20126;-62
2022/03/29 06:32:02;;;;;;;31.08;15.57;;;;;;;10.90;73.91;97002.63;4986849;28;20055;-68
2022/03/29 06:34:29;;;;;;;27.52;14.32;;;;;;;10.84;73.48;96990.25;4984737;28;20062;-69
2022/03/29 06:36:56;;;;;;;24.23;14.43;;;;;;;10.47;73.65;96935.50;4986890;28;20073;-60
2022/03/29 06:39:23;;;;;;;20.90;13.82;;;;;;;11.19;72.33;96985.22;4986299;28;20062;-56
2022/03/29 06:41:50;;;;;;;28.88;14.98;;;;;;;11.67;70.73;96992.59;4986617;28;20053;-57
2022/03/29 06:44:22;;;;;;;28.27;15.10;;;;;;;11.82;68.69;96984.06;4986554;28;20138;-65
2022/03/29 06:46:50;;;;;;;29.30;14.50;;;;;;;11.66;68.04;96968.81;4986065;28;20517;-58
2022/03/29 06:49:16;;;;;;;27.85;13.57;;;;;;;12.23;65.36;96991.22;4965562;28;20058;-58
2022/03/29 06:51:44;;;;;;;22.35;13.00;;;;;;;12.37;63.57;96935.03;4966792;28;20054;-58
2022/03/29 06:54:11;;;;;;;24.35;14.43;;;;;;;12.54;62.71;96981.59;4973269;28;20689;-61
2022/03/29 06:56:38;;;;;;;22.70;13.00;;;;;;;12.85;62.22;96983.03;4993497;28;20085;-58
2022/03/29 06:59:05;;;;;;;20.42;12.60;;;;;;;13.02;61.36;96969.28;4989909;28;20164;-62
2022/03/29 07:01:31;;;;;;;22.67;11.75;;;;;;;13.27;59.86;96953.53;5006051;28;20136;-60
2022/03/29 07:03:59;;;;;;;20.73;12.68;;;;;;;13.10;59.22;96953.44;5006089;28;20435;-58
2022/03/29 07:06:31;;;;;;;21.42;11.52;;;;;;;13.07;58.84;96910.50;5005066;28;20054;-57
2022/03/29 07:12:02;;;;;;;25.40;14.02;;;;;;;14.04;57.76;96974.47;4985868;28;20053;-57
2022/03/29 07:14:29;;;;;;;23.95;12.82;;;;;;;13.41;56.62;96853.44;4985822;28;20054;-61
2022/03/29 07:16:55;;;;;;;22.38;12.27;;;;;;;13.82;55.13;96886.50;4986406;28;20537;-59
2022/03/29 07:19:23;;;;;;;18.92;11.63;;;;;;;14.39;54.94;96952.28;4985829;28;20093;-64
2022/03/29 07:21:50;;;;;;;23.90;11.82;;;;;;;14.68;54.12;96943.53;4986757;28;20145;-57
2022/03/29 07:24:17;;;;;;;20.73;12.40;;;;;;;14.72;53.48;96921.19;4986022;28;20090;-68
2022/03/29 07:26:44;;;;;;;21.25;12.07;;;;;;;14.65;52.11;96884.97;4986200;28;20053;-58
2022/03/29 07:29:15;;;;;;;21.58;11.73;;;;;;;15.25;51.73;96927.47;4985091;28;20072;-57
2022/03/29 07:31:42;;;;;;;19.63;11.75;;;;;;;15.51;51.45;96935.38;4983801;28;20077;-62
2022/03/29 07:34:10;;;;;;;18.75;12.07;;;;;;;15.60;50.29;96938.53;4984938;28;20058;-61
2022/03/29 07:36:38;;;;;;;29.67;14.25;;;;;;;15.73;50.08;96924.94;4983544;28;20137;-63
2022/03/29 07:39:05;;;;;;;24.10;13.65;;;;;;;15.62;50.26;96941.72;4984275;28;20050;-56
2022/03/29 07:41:32;;;;;;;19.77;12.65;;;;;;;15.65;50.29;96907.38;4985701;28;20516;-55
2022/03/29 07:44:00;;;;;;;24.90;12.13;;;;;;;15.78;50.09;96916.91;4985345;28;20137;-64
2022/03/29 07:46:26;;;;;;;22.30;11.88;;;;;;;15.54;50.55;96923.41;4985510;28;20573;-62
2022/03/29 07:48:53;;;;;;;21.55;12.38;;;;;;;15.49;50.40;96893.09;4985722;28;21216;-55
2022/03/29 07:51:40;;;;;;;21.55;12.48;;;;;;;15.38;50.50;96897.94;4983889;28;20524;-68
2022/03/29 07:54:07;;;;;;;22.17;12.43;;;;;;;14.78;51.32;96830.34;4984038;28;20062;-63
2022/03/29 07:56:34;;;;;;;23.33;12.38;;;;;;;15.39;50.45;96905.13;4985083;28;20517;-56
2022/03/29 07:59:01;;;;;;;22.55;12.55;;;;;;;15.36;51.40;96911.50;4988337;28;20058;-60
2022/03/29 08:01:29;;;;;;;18.83;11.80;;;;;;;15.88;50.40;96899.31;5002917;28;20049;-56
2022/03/29 08:03:56;;;;;;;22.58;12.02;;;;;;;16.22;48.92;96903.03;5004253;28;20063;-67
2022/03/29 08:06:23;;;;;;;19.20;11.20;;;;;;;16.29;48.78;96891.03;5003195;28;20129;-63
2022/03/29 08:08:50;;;;;;;28.08;13.27;;;;;;;16.59;48.25;96844.47;5005134;28;20060;-57
2022/03/29 08:11:16;;;;;;;19.80;12.10;;;;;;;17.17;47.54;96895.81;5005056;28;20554;-65
2022/03/29 08:13:43;;;;;;;21.83;12.40;;;;;;;17.30;47.25;96889.25;5004773;28;20049;-67
2022/03/29 08:16:10;;;;;;;20.17;12.18;;;;;;;15.74;46.06;96603.34;5004676;28;20046;-70
2022/03/29 08:18:38;;;;;;;23.83;12.23;;;;;;;17.54;46.69;96884.59;5004617;28;20483;-57
2022/03/29 08:21:47;;;;;;;18.65;12.65;;;;;;;16.94;46.50;96832.09;5002420;28;20053;-55
2022/03/29 08:23:53;;;;;;;20.20;11.95;;;;;;;17.46;46.20;96864.28;5004538;28;20456;-64
2022/03/29 08:26:20;;;;;;;19.45;11.23;;;;;;;17.77;45.88;96877.06;5004355;28;20065;-56
2022/03/29 08:28:46;;;;;;;21.25;11.82;;;;;;;17.82;45.40;96865.41;5004246;28;20053;-63
2022/03/29 08:31:13;;;;;;;22.73;12.48;;;;;;;17.86;45.42;96871.75;5004306;28;20084;-56
2022/03/29 08:33:40;;;;;;;21.20;11.77;;;;;;;17.96;45.20;96864.41;5003771;28;20117;-67
2022/03/29 08:36:06;;;;;;;24.27;11.18;;;;;;;18.05;44.96;96857.03;5004385;28;20068;-63
2022/03/29 08:38:33;;;;;;;18.33;11.30;;;;;;;17.22;44.67;96735.78;5004567;28;20050;-56
2022/03/29 08:41:00;;;;;;;19.52;10.90;;;;;;;18.33;44.46;96844.59;5003131;28;20056;-63
2022/03/29 08:43:30;;;;;;;123.55;62.67;;;;;;;18.56;43.62;96847.44;5002527;28;20046;-59
2022/03/29 08:45:58;;;;;;;23.63;11.75;;;;;;;18.85;42.76;96842.09;5003690;28;20053;-57
2022/03/29 08:48:27;;;;;;;20.75;12.77;;;;;;;17.26;42.62;96618.97;5002404;28;20065;-66
2022/03/29 08:50:57;;;;;;;14.15;10.63;;;;;;;17.65;43.02;96736.78;5003799;28;20054;-65
2022/03/29 08:53:48;;;;;;;21.80;11.43;;;;;;;17.70;44.07;96835.13;5004361;28;20049;-65
2022/03/29 08:56:15;;;;;;;15.75;10.38;;;;;;;17.67;44.06;96835.22;5004544;28;20101;-67
2022/03/29 08:58:41;;;;;;;17.67;11.88;;;;;;;17.23;43.22;96670.97;5004165;28;20557;-57
2022/03/29 09:01:08;;;;;;;17.00;10.77;;;;;;;18.46;42.36;96814.75;5003817;28;20087;-63
2022/03/29 09:03:36;;;;;;;15.75;10.63;;;;;;;18.59;42.00;96824.13;5003652;28;20065;-71
2022/03/29 09:06:11;;;;;;;18.85;11.82;;;;;;;18.87;42.11;96806.78;5001411;28;20133;-71
2022/03/29 09:08:51;;;;;;;15.52;10.25;;;;;;;19.04;41.21;96771.94;5002131;28;20062;-71
2022/03/29 09:11:18;;;;;;;18.35;11.50;;;;;;;19.35;40.87;96798.59;5001896;28;20050;-58
2022/03/29 09:13:45;;;;;;;17.75;10.52;;;;;;;19.69;40.29;96806.69;5003837;28;20064;-58
2022/03/29 09:16:29;;;;;;;18.48;10.13;;;;;;;20.16;39.26;96796.75;5002166;28;20507;-70
2022/03/29 09:18:57;;;;;;;17.63;9.85;;;;;;;20.21;38.71;96792.63;5004197;28;20056;-73
2022/03/29 09:21:25;;;;;;;14.73;9.95;;;;;;;20.31;37.76;96774.72;5004355;28;20053;-72
2022/03/29 09:24:11;;;;;;;20.08;10.25;;;;;;;20.25;37.56;96726.59;5002046;28;20076;-57
2022/03/29 09:26:41;;;;;;;19.65;10.20;;;;;;;20.56;37.19;96819.88;4994939;28;20064;-66
2022/03/29 09:29:19;;;;;;;15.05;10.35;;;;;;;20.07;37.58;96737.50;4986453;28;20054;-60
2022/03/29 09:32:00;;;;;;;12.18;9.07;;;;;;;20.36;36.55;96762.94;4994183;28;20427;-58
2022/03/29 09:34:28;;;;;;;11.38;8.45;;;;;;;20.28;35.75;96758.72;5003149;28;20062;-73
2022/03/29 09:36:55;;;;;;;14.23;8.93;;;;;;;20.24;35.42;96769.25;5003962;28;20378;-71
2022/03/29 09:39:38;;;;;;;19.75;8.95;;;;;;;19.58;35.02;96711.38;5003554;28;20577;-74
2022/03/29 09:42:11;;;;;;;20.47;8.37;;;;;;;19.08;35.08;96649.13;5004176;28;20071;-73
2022/03/29 09:44:44;;;;;;;11.05;7.90;;;;;;;19.63;33.93;96745.81;5003753;28;20062;-73
2022/03/29 09:47:13;;;;;;;12.10;7.35;;;;;;;19.70;33.77;96737.19;5002465;28;20054;-58
2022/03/29 09:49:57;;;;;;;18.98;8.30;;;;;;;19.96;33.66;96739.00;4998844;28;20046;-71
2022/03/29 09:52:27;;;;;;;10.48;6.70;;;;;;;19.92;32.62;96712.97;4987525;28;20117;-59
2022/03/29 09:55:17;;;;;;;9.95;7.68;;;;;;;19.64;32.88;96719.28;4987651;28;20165;-73
2022/03/29 09:57:47;;;;;;;10.77;6.90;;;;;;;19.93;33.22;96720.19;4988443;28;20129;-72
2022/03/29 10:00:15;;;;;;;11.70;8.00;;;;;;;20.05;33.06;96713.84;4987872;28;20046;-72
2022/03/29 10:02:45;;;;;;;12.68;8.07;;;;;;;20.13;33.51;96673.06;4986696;28;20062;-72
2022/03/29 10:05:12;;;;;;;14.05;8.48;;;;;;;20.10;31.62;96668.31;4987588;28;20157;-57
2022/03/29 10:07:42;;;;;;;20.98;7.32;;;;;;;20.43;31.65;96709.25;4988076;28;20428;-71
2022/03/29 10:10:10;;;;;;;8.10;7.22;;;;;;;20.22;31.90;96664.81;4988173;28;20055;-59
2022/03/29 10:12:37;;;;;;;9.20;6.53;;;;;;;20.55;31.16;96688.84;4986382;28;20554;-73
2022/03/29 10:15:24;;;;;;;14.73;8.50;;;;;;;20.49;31.47;96670.91;4987734;28;20047;-74
2022/03/29 10:17:55;;;;;;;23.38;10.43;;;;;;;20.15;31.27;96586.25;4987742;28;20069;-73
2022/03/29 10:20:22;;;;;;;13.50;6.95;;;;;;;20.34;30.82;96645.19;4985871;28;20058;-74
2022/03/29 10:22:50;;;;;;;14.48;7.07;;;;;;;20.49;31.60;96677.31;4986190;28;20054;-57
2022/03/29 10:25:17;;;;;;;12.73;6.93;;;;;;;20.66;31.33;96680.91;4985919;28;20069;-72
2022/03/29 10:27:44;;;;;;;9.35;6.90;;;;;;;20.86;31.17;96665.41;4986638;28;20077;-57
2022/03/29 10:30:11;;;;;;;14.20;7.22;;;;;;;20.60;30.61;96657.31;4986138;28;20053;-57
2022/03/29 10:32:37;;;;;;;8.70;7.13;;;;;;;20.47;30.99;96653.69;4987314;28;20054;-58
2022/03/29 10:35:10;;;;;;;11.90;6.50;;;;;;;20.29;30.64;96620.41;4985473;28;20066;-58
2022/03/29 10:37:54;;;;;;;10.65;6.53;;;;;;;20.40;31.15;96645.44;4987341;28;20054;-60
2022/03/29 10:40:39;;;;;;;9.95;7.03;;;;;;;20.89;31.19;96649.63;5001705;28;20050;-59
2022/03/29 10:43:29;;;;;;;15.27;7.68;;;;;;;20.80;31.13;96632.63;4987832;28;20085;-58
2022/03/29 10:45:57;;;;;;;12.43;8.45;;;;;;;21.00;31.21;96652.97;4987088;28;20062;-60
2022/03/29 10:48:24;;;;;;;11.48;7.15;;;;;;;20.92;29.76;96685.34;4986817;28;20046;-61
2022/03/29 10:50:56;;;;;;;11.90;6.78;;;;;;;20.94;29.74;96618.13;4986706;28;20137;-71
2022/03/29 10:53:23;;;;;;;13.55;6.10;;;;;;;20.35;29.46;96525.00;4985641;28;20046;-59
2022/03/29 10:56:24;;;;;;;9.93;6.43;;;;;;;20.54;30.66;96625.34;4986926;28;20061;-62
2022/03/29 10:59:04;;;;;;;10.68;6.65;;;;;;;20.84;29.87;96622.03;4995422;28;20438;-74
2022/03/29 11:01:32;;;;;;;11.32;6.38;;;;;;;20.54;29.05;96557.78;4984867;28;20062;-74
2022/03/29 11:03:59;;;;;;;16.17;6.60;;;;;;;21.23;28.31;96621.66;4984409;28;20536;-59
2022/03/29 11:06:26;;;;;;;10.55;6.45;;;;;;;21.65;28.50;96613.84;4985193;28;20058;-72
2022/03/29 11:09:06;;;;;;;13.48;5.95;;;;;;;22.01;27.68;96606.59;4986936;28;20049;-57
2022/03/29 11:33:56;;;;;;;9.75;6.10;;;;;;;22.66;27.52;96569.16;4986025;28;20529;-72
2022/03/29 11:36:23;;;;;;;12.20;6.78;;;;;;;22.43;25.93;96528.06;4986174;28;20054;-71
2022/03/29 11:38:50;;;;;;;16.75;6.28;;;;;;;22.72;25.71;96553.19;4986522;28;20054;-59
2022/03/29 11:41:29;;;;;;;12.82;7.57;;;;;;;23.01;25.63;96546.00;4984513;28;20054;-58
2022/03/29 11:44:05;;;;;;;10.45;6.15;;;;;;;22.62;25.12;96545.94;4985780;28;20108;-71
2022/03/29 11:47:01;;;;;;;18.52;6.50;;;;;;;22.77;26.00;96525.16;4985819;28;20557;-58
2022/03/29 11:49:38;;;;;;;13.55;6.13;;;;;;;22.42;25.22;96481.31;4988853;28;20054;-58
2022/03/29 11:52:12;;;;;;;12.07;6.57;;;;;;;22.45;26.00;96537.66;4984336;28;20059;-69
2022/03/29 11:54:45;;;;;;;11.93;5.90;;;;;;;22.26;25.39;96533.13;4984438;28;20050;-57
2022/03/29 11:57:17;;;;;;;10.67;5.40;;;;;;;21.73;25.33;96468.59;4985814;28;20109;-58
2022/03/29 11:59:44;;;;;;;12.63;6.82;;;;;;;21.58;26.13;96459.84;4987469;28;20055;-60
2022/03/29 12:02:11;;;;;;;10.23;5.70;;;;;;;22.32;26.09;96511.53;4985662;28;20489;-71